Time;durP1;ratioP1;P1;durP2;ratioP2;P2;SDS_P1;SDS_P2;PMS_P1;PMS_P2;Temp;Humidity;BMP_temperature;BMP_pressure;BME280_temperature;BME280_humidity;BME280_pressure;Samples;Min_cycle;Max_cycle;Signal;HPM_P1;HPM_P2
2023/12/07 00:01:24;;;;;;;0.82;0.60;;;1.10;99.90;;;;;;5057781;28;20563;-83
2023/12/07 00:03:51;;;;;;;1.40;1.13;;;1.10;99.90;;;;;;5058020;28;20574;-83
2023/12/07 00:06:17;;;;;;;1.98;1.52;;;1.10;99.90;;;;;;5052975;28;20285;-81
2023/12/07 00:08:44;;;;;;;3.15;3.03;;;1.10;99.90;;;;;;5053252;28;20679;-82
2023/12/07 00:11:12;;;;;;;5.82;5.40;;;1.10;99.90;;;;;;5053018;28;20199;-82
2023/12/07 00:13:39;;;;;;;0.50;0.50;;;1.00;99.90;;;;;;5053749;28;20240;-81
2023/12/07 00:16:06;;;;;;;0.40;0.40;;;1.00;99.90;;;;;;5053530;28;20203;-81
2023/12/07 00:18:33;;;;;;;6.10;2.08;;;1.00;99.90;;;;;;5045516;28;20198;-82
2023/12/07 00:21:00;;;;;;;4.55;2.55;;;1.00;99.90;;;;;;5053473;28;20200;-81
2023/12/07 00:23:26;;;;;;;2.50;1.48;;;1.00;99.90;;;;;;5053446;28;20214;-79
2023/12/07 00:25:53;;;;;;;1.55;1.45;;;0.90;99.90;;;;;;5053303;28;20194;-80
2023/12/07 00:28:21;;;;;;;1.90;1.80;;;0.90;99.90;;;;;;5053035;28;20240;-81
2023/12/07 00:30:48;;;;;;;7.20;6.28;;;0.90;99.90;;;;;;5053463;28;20195;-81
2023/12/07 00:33:16;;;;;;;1.42;1.42;;;0.90;99.90;;;;;;5054956;28;20222;-81
2023/12/07 00:35:43;;;;;;;3.42;2.08;;;0.90;99.90;;;;;;5071365;28;20199;-82
2023/12/07 00:38:10;;;;;;;1.17;1.17;;;0.90;99.90;;;;;;5074730;28;20203;-82
2023/12/07 00:40:39;;;;;;;1.25;1.25;;;0.80;99.90;;;;;;5074877;28;20202;-81
2023/12/07 00:43:07;;;;;;;1.02;0.93;;;0.90;99.90;;;;;;5074817;28;20226;-82
2023/12/07 00:45:35;;;;;;;1.55;1.45;;;0.80;99.90;;;;;;5074686;28;20206;-83
2023/12/07 00:48:01;;;;;;;2.90;2.78;;;0.90;99.90;;;;;;5074833;28;20211;-81
2023/12/07 00:50:28;;;;;;;3.63;2.55;;;0.80;99.90;;;;;;5074864;28;20221;-81
2023/12/07 00:52:55;;;;;;;3.20;2.90;;;0.80;99.90;;;;;;5071980;28;20242;-83
2023/12/07 00:55:22;;;;;;;2.45;2.35;;;0.80;99.90;;;;;;5057108;28;20673;-84
2023/12/07 00:57:48;;;;;;;0.95;0.95;;;0.80;99.90;;;;;;5056983;28;20278;-84
2023/12/07 01:00:16;;;;;;;3.80;3.50;;;0.80;99.90;;;;;;5057424;28;20270;-84
2023/12/07 01:02:44;;;;;;;4.22;3.97;;;0.80;99.90;;;;;;5057697;28;20297;-84
2023/12/07 01:05:11;;;;;;;2.25;2.15;;;0.80;99.90;;;;;;5057480;28;20234;-84
2023/12/07 01:07:37;;;;;;;6.65;3.60;;;0.80;99.90;;;;;;5048759;28;20214;-83
2023/12/07 01:10:05;;;;;;;2.70;2.58;;;0.80;99.90;;;;;;5056391;28;20203;-83
2023/12/07 01:12:32;;;;;;;4.32;1.48;;;0.80;99.90;;;;;;5055514;28;20223;-83
2023/12/07 01:14:59;;;;;;;3.58;3.30;;;0.80;99.90;;;;;;5056050;28;20271;-83
2023/12/07 01:17:26;;;;;;;1.98;1.83;;;0.80;99.90;;;;;;5057251;28;20562;-82
2023/12/07 01:19:54;;;;;;;2.17;2.08;;;0.80;99.90;;;;;;5060493;28;20199;-84
2023/12/07 01:22:21;;;;;;;1.25;1.25;;;0.80;99.90;;;;;;5059693;28;20222;-83
2023/12/07 01:24:48;;;;;;;3.60;3.22;;;0.80;99.90;;;;;;5060388;28;20203;-84
2023/12/07 01:27:14;;;;;;;0.60;0.60;;;0.80;99.90;;;;;;5059959;28;20203;-82
2023/12/07 01:29:41;;;;;;;1.25;1.25;;;0.80;99.90;;;;;;5059891;28;20210;-83
2023/12/07 01:32:08;;;;;;;1.65;1.55;;;0.80;99.90;;;;;;5060151;28;20225;-84
2023/12/07 01:34:35;;;;;;;0.60;0.60;;;0.80;99.90;;;;;;5060176;28;20231;-84
2023/12/07 01:37:03;;;;;;;2.72;2.50;;;0.80;99.90;;;;;;5059799;28;20573;-84
2023/12/07 01:39:30;;;;;;;0.68;0.68;;;0.80;99.90;;;;;;5060045;28;20876;-84
2023/12/07 01:41:57;;;;;;;0.60;0.60;;;0.80;99.90;;;;;;5059764;28;20223;-84
2023/12/07 01:44:24;;;;;;;2.15;2.05;;;0.80;99.90;;;;;;5059229;28;20692;-83
2023/12/07 01:46:50;;;;;;;2.15;2.05;;;0.70;99.90;;;;;;5060212;28;20195;-83
2023/12/07 01:49:17;;;;;;;1.05;1.05;;;0.70;99.90;;;;;;5058871;28;20215;-83
2023/12/07 01:51:44;;;;;;;2.47;2.38;;;0.80;99.90;;;;;;5059034;28;20586;-83
2023/12/07 01:54:12;;;;;;;0.50;0.50;;;0.80;99.90;;;;;;5059365;28;20199;-84
2023/12/07 01:56:39;;;;;;;1.50;1.50;;;0.70;99.90;;;;;;5059632;28;20361;-84
2023/12/07 01:59:06;;;;;;;0.50;0.50;;;0.80;99.90;;;;;;5059481;28;20202;-83
2023/12/07 02:01:33;;;;;;;0.40;0.40;;;0.80;99.90;;;;;;5059561;28;20195;-84
2023/12/07 02:03:59;;;;;;;0.40;0.40;;;0.80;99.90;;;;;;5058791;28;20704;-84
2023/12/07 02:06:28;;;;;;;3.47;3.28;;;0.70;99.90;;;;;;5058872;28;20221;-84
2023/12/07 02:08:55;;;;;;;2.17;2.08;;;0.70;99.90;;;;;;5059524;28;20233;-84
2023/12/07 02:11:24;;;;;;;3.72;3.42;;;0.70;99.90;;;;;;5059519;28;20689;-82
2023/12/07 02:13:55;;;;;;;4.40;4.10;;;0.60;99.90;;;;;;5059127;28;20234;-84
2023/12/07 02:16:26;;;;;;;1.42;1.42;;;0.60;99.90;;;;;;5058793;28;20221;-84
2023/12/07 02:19:03;;;;;;;0.60;0.55;;;0.60;99.90;;;;;;5059469;28;20199;-83
2023/12/07 02:21:37;;;;;;;3.22;1.25;;;0.60;99.90;;;;;;5058811;28;20755;-84
2023/12/07 02:24:06;;;;;;;0.40;0.40;;;0.60;99.90;;;;;;5058689;28;20209;-84
2023/12/07 02:26:37;;;;;;;0.40;0.40;;;0.50;99.90;;;;;;5058511;28;20205;-83
2023/12/07 02:29:04;;;;;;;6.38;2.58;;;0.50;99.90;;;;;;5057322;28;20657;-83
2023/12/07 02:31:31;;;;;;;0.40;0.40;;;0.50;99.90;;;;;;5058904;28;20195;-84
2023/12/07 02:33:58;;;;;;;1.98;1.50;;;0.60;99.90;;;;;;5058752;28;20638;-83
2023/12/07 02:36:27;;;;;;;0.50;0.50;;;0.60;99.90;;;;;;5058768;28;20195;-82
2023/12/07 02:39:01;;;;;;;1.40;1.40;;;0.60;99.90;;;;;;5058577;28;20191;-83
2023/12/07 02:41:28;;;;;;;0.40;0.40;;;0.60;99.90;;;;;;5057581;28;20744;-83
2023/12/07 02:43:57;;;;;;;3.10;2.28;;;0.60;99.90;;;;;;5058064;28;20203;-84
2023/12/07 02:46:24;;;;;;;1.45;1.35;;;0.60;99.90;;;;;;5058248;28;20289;-83
2023/12/07 02:48:51;;;;;;;1.10;1.00;;;0.60;99.90;;;;;;5058590;28;20582;-83
2023/12/07 02:51:18;;;;;;;0.40;0.40;;;0.60;99.90;;;;;;5058485;28;20574;-83
2023/12/07 02:53:46;;;;;;;2.20;2.08;;;0.60;99.90;;;;;;5058087;28;20215;-84
2023/12/07 02:56:13;;;;;;;17.13;5.43;;;0.60;99.90;;;;;;5057635;28;20209;-84
2023/12/07 02:58:39;;;;;;;6.95;6.35;;;0.60;99.90;;;;;;5058533;28;20199;-83
2023/12/07 03:01:08;;;;;;;1.70;1.60;;;0.50;99.90;;;;;;5058260;28;20199;-83
2023/12/07 03:03:35;;;;;;;0.85;0.85;;;0.40;99.90;;;;;;5058357;28;20219;-84
2023/12/07 03:06:02;;;;;;;2.35;2.15;;;0.40;99.90;;;;;;5058020;28;20195;-84
2023/12/07 03:08:29;;;;;;;0.80;0.80;;;0.40;99.90;;;;;;5057325;28;20388;-83
2023/12/07 03:10:55;;;;;;;6.18;2.55;;;0.40;99.90;;;;;;5058379;28;20595;-83
2023/12/07 03:13:22;;;;;;;0.40;0.40;;;0.40;99.90;;;;;;5058018;28;20741;-83
2023/12/07 03:15:49;;;;;;;1.88;1.85;;;0.40;99.90;;;;;;5058055;28;20201;-82
2023/12/07 03:18:17;;;;;;;0.40;0.40;;;0.50;99.90;;;;;;5057414;28;20670;-84
2023/12/07 03:20:44;;;;;;;3.75;3.47;;;0.60;99.90;;;;;;5057589;28;20207;-83
2023/12/07 03:23:11;;;;;;;3.60;1.75;;;0.70;99.90;;;;;;5057346;28;20223;-84
2023/12/07 03:25:38;;;;;;;0.40;0.40;;;0.80;99.90;;;;;;5057990;28;20195;-83
2023/12/07 03:28:04;;;;;;;0.40;0.40;;;0.80;99.90;;;;;;5057582;28;20221;-83
2023/12/07 03:30:31;;;;;;;3.92;3.65;;;0.90;99.90;;;;;;5057847;28;20209;-84
2023/12/07 03:32:58;;;;;;;0.40;0.40;;;0.90;99.90;;;;;;5058561;28;20223;-84
2023/12/07 03:35:26;;;;;;;4.75;4.22;;;0.90;99.90;;;;;;5058512;28;20199;-85
2023/12/07 03:37:53;;;;;;;0.40;0.35;;;1.00;99.90;;;;;;5049965;28;20195;-84
2023/12/07 03:40:20;;;;;;;3.60;1.63;;;1.00;99.90;;;;;;5057508;28;20203;-84
2023/12/07 03:42:46;;;;;;;0.52;0.50;;;1.10;99.90;;;;;;5056755;28;20237;-84
2023/12/07 03:45:13;;;;;;;0.95;0.95;;;1.20;99.90;;;;;;5058441;28;20199;-84
2023/12/07 03:47:40;;;;;;;0.40;0.40;;;1.30;99.90;;;;;;5057567;28;20199;-84
2023/12/07 03:50:07;;;;;;;0.40;0.40;;;1.40;99.90;;;;;;5056870;28;20211;-84
2023/12/07 03:52:35;;;;;;;5.28;2.88;;;1.40;99.90;;;;;;5057537;28;20229;-84
2023/12/07 03:55:02;;;;;;;1.20;1.15;;;1.40;99.90;;;;;;5057584;28;20211;-82
2023/12/07 03:57:29;;;;;;;0.80;0.80;;;1.60;99.90;;;;;;5057329;28;20386;-83
2023/12/07 03:59:56;;;;;;;0.40;0.32;;;1.70;99.90;;;;;;5056850;28;20201;-84
2023/12/07 04:02:23;;;;;;;4.00;1.88;;;1.70;99.90;;;;;;5056923;28;20654;-85
2023/12/07 04:04:50;;;;;;;1.13;1.02;;;1.80;99.90;;;;;;5056783;28;20198;-84
2023/12/07 04:07:17;;;;;;;0.40;0.40;;;1.90;99.90;;;;;;5057143;28;20205;-83
2023/12/07 04:09:45;;;;;;;0.88;0.88;;;1.90;99.90;;;;;;5056879;28;20225;-84
2023/12/07 04:12:12;;;;;;;0.40;0.40;;;1.90;99.90;;;;;;5057371;28;20655;-84
2023/12/07 04:14:39;;;;;;;0.50;0.40;;;2.00;99.90;;;;;;5056574;28;20199;-84
2023/12/07 04:17:06;;;;;;;0.40;0.40;;;2.00;99.90;;;;;;5057399;28;20203;-83
2023/12/07 04:19:32;;;;;;;2.85;2.45;;;2.00;99.90;;;;;;5056478;28;20225;-80
2023/12/07 04:21:59;;;;;;;0.40;0.40;;;2.00;99.90;;;;;;5057165;28;20226;-83
2023/12/07 04:24:26;;;;;;;0.40;0.30;;;2.00;99.90;;;;;;5057921;28;20196;-83
2023/12/07 04:26:54;;;;;;;1.15;1.05;;;2.00;99.90;;;;;;5056854;28;20201;-83
2023/12/07 04:29:21;;;;;;;0.60;0.60;;;2.10;99.90;;;;;;5054872;28;20221;-82
2023/12/07 04:31:47;;;;;;;2.58;2.47;;;2.20;99.90;;;;;;5059857;28;20246;-82
2023/12/07 04:34:14;;;;;;;0.40;0.40;;;2.10;99.90;;;;;;5050009;28;20195;-82
2023/12/07 04:36:41;;;;;;;1.67;1.58;;;2.10;99.90;;;;;;5057528;28;20199;-81
2023/12/07 04:39:08;;;;;;;0.40;0.40;;;2.10;99.90;;;;;;5053793;28;20195;-82
2023/12/07 04:41:35;;;;;;;0.40;0.40;;;2.10;99.90;;;;;;5053045;28;20211;-82
2023/12/07 04:44:03;;;;;;;1.00;1.00;;;2.10;99.90;;;;;;5054282;28;20894;-81
2023/12/07 04:46:29;;;;;;;0.40;0.40;;;2.20;99.90;;;;;;5053735;28;20205;-81
2023/12/07 04:48:56;;;;;;;0.95;0.95;;;2.20;99.90;;;;;;5053284;28;20695;-81
2023/12/07 04:51:23;;;;;;;0.40;0.30;;;2.30;99.90;;;;;;5054420;28;20203;-83
2023/12/07 04:53:50;;;;;;;0.40;0.40;;;2.30;99.90;;;;;;5053316;28;20926;-82
2023/12/07 04:56:17;;;;;;;0.40;0.30;;;2.30;99.90;;;;;;5053284;28;20225;-81
2023/12/07 04:58:43;;;;;;;0.40;0.40;;;2.30;99.90;;;;;;5053735;28;20570;-82
2023/12/07 05:01:12;;;;;;;0.40;0.40;;;2.30;99.90;;;;;;5053150;28;20297;-81
2023/12/07 05:03:39;;;;;;;0.40;0.38;;;2.20;99.90;;;;;;5052928;28;20219;-81
2023/12/07 05:06:07;;;;;;;0.40;0.30;;;2.30;99.90;;;;;;5052576;28;20297;-81
2023/12/07 05:08:34;;;;;;;4.65;4.35;;;2.30;99.90;;;;;;5052549;28;20215;-80
2023/12/07 05:11:01;;;;;;;0.40;0.40;;;2.30;99.90;;;;;;5053088;28;20192;-82
2023/12/07 05:13:27;;;;;;;1.25;1.25;;;2.30;99.90;;;;;;5054588;28;20223;-79
2023/12/07 05:15:54;;;;;;;14.60;5.88;;;2.30;99.90;;;;;;5053831;28;20207;-83
2023/12/07 05:18:22;;;;;;;0.40;0.30;;;2.30;99.90;;;;;;5053200;28;20202;-81
2023/12/07 05:20:49;;;;;;;2.22;2.13;;;2.40;99.90;;;;;;5052630;28;20203;-81
2023/12/07 05:23:16;;;;;;;0.60;0.60;;;2.40;99.90;;;;;;5052480;28;20219;-81
2023/12/07 05:25:43;;;;;;;9.23;1.90;;;2.40;99.90;;;;;;5055548;28;20199;-82
2023/12/07 05:28:10;;;;;;;1.48;1.48;;;2.50;99.90;;;;;;5053245;28;20203;-81
2023/12/07 05:30:37;;;;;;;8.02;7.45;;;2.50;99.90;;;;;;5053098;28;20218;-79
2023/12/07 05:33:04;;;;;;;1.40;1.40;;;2.50;99.90;;;;;;5054657;28;20227;-82
2023/12/07 05:35:32;;;;;;;0.47;0.47;;;2.50;99.90;;;;;;5053770;28;20218;-81
2023/12/07 05:37:59;;;;;;;0.40;0.40;;;2.60;99.90;;;;;;5053420;28;20222;-81
2023/12/07 05:40:27;;;;;;;4.03;3.72;;;2.60;99.90;;;;;;5053347;28;20196;-81
2023/12/07 05:42:53;;;;;;;3.42;3.05;;;2.60;99.90;;;;;;5053239;28;20227;-82
2023/12/07 05:45:20;;;;;;;5.90;5.47;;;2.60;99.90;;;;;;5052379;28;20202;-80
2023/12/07 05:47:47;;;;;;;0.52;0.52;;;2.70;99.90;;;;;;5052994;28;20274;-81
2023/12/07 05:50:14;;;;;;;1.77;1.67;;;2.70;99.90;;;;;;5052928;28;20219;-82
2023/12/07 05:52:42;;;;;;;2.25;1.45;;;2.70;99.90;;;;;;5055803;28;20222;-82
2023/12/07 05:55:09;;;;;;;1.08;0.70;;;2.60;99.90;;;;;;5052719;28;20551;-81
2023/12/07 05:57:36;;;;;;;1.40;0.90;;;2.60;99.90;;;;;;5053496;28;20195;-81
2023/12/07 06:00:03;;;;;;;0.82;0.82;;;2.60;99.90;;;;;;5053485;28;20192;-81
2023/12/07 06:02:30;;;;;;;4.88;2.15;;;2.60;99.90;;;;;;5052513;28;20227;-81
2023/12/07 06:04:57;;;;;;;2.45;2.15;;;2.50;99.90;;;;;;5054525;28;20198;-82
2023/12/07 06:07:23;;;;;;;0.75;0.75;;;2.50;99.90;;;;;;5058108;28;20433;-82
2023/12/07 06:09:51;;;;;;;3.80;2.10;;;2.50;99.90;;;;;;5057019;28;20221;-82
2023/12/07 06:12:18;;;;;;;0.40;0.40;;;2.40;99.90;;;;;;5057722;28;20238;-83
2023/12/07 06:14:45;;;;;;;3.55;3.22;;;2.30;99.90;;;;;;5061765;28;20658;-85
2023/12/07 06:17:12;;;;;;;2.92;2.80;;;2.30;99.90;;;;;;5058364;28;20203;-83
2023/12/07 06:19:39;;;;;;;0.40;0.30;;;2.40;99.90;;;;;;5057414;28;20621;-83
2023/12/07 06:22:05;;;;;;;0.40;0.40;;;2.40;99.90;;;;;;5062601;28;20329;-84
2023/12/07 06:24:32;;;;;;;0.50;0.50;;;2.40;99.90;;;;;;5059588;28;20257;-84
2023/12/07 06:27:01;;;;;;;5.93;1.58;;;2.40;99.90;;;;;;5058626;28;20202;-84
2023/12/07 06:29:28;;;;;;;1.38;1.38;;;2.40;99.90;;;;;;5058876;28;20598;-84
2023/12/07 06:31:55;;;;;;;15.25;4.25;;;2.40;99.90;;;;;;5059444;28;20571;-83
2023/12/07 06:34:22;;;;;;;22.17;8.32;;;2.30;99.90;;;;;;5059839;28;20286;-83
2023/12/07 06:36:49;;;;;;;1.30;1.08;;;2.30;99.90;;;;;;5058244;28;20202;-83
2023/12/07 06:39:16;;;;;;;1.85;1.75;;;2.30;99.90;;;;;;5058951;28;20191;-83
2023/12/07 06:41:42;;;;;;;2.55;2.35;;;2.30;99.90;;;;;;5058598;28;20199;-82
2023/12/07 06:44:10;;;;;;;0.40;0.40;;;2.20;99.90;;;;;;5059418;28;20199;-83
2023/12/07 06:46:37;;;;;;;0.40;0.40;;;2.10;99.90;;;;;;5057470;28;20590;-83
2023/12/07 06:49:04;;;;;;;1.00;1.00;;;2.10;99.90;;;;;;5058718;28;20261;-84
2023/12/07 06:51:31;;;;;;;3.17;3.03;;;2.10;99.90;;;;;;5061320;28;20202;-84
2023/12/07 06:53:58;;;;;;;3.63;2.67;;;2.10;99.90;;;;;;5061439;28;20195;-84
2023/12/07 06:56:25;;;;;;;0.40;0.40;;;2.00;99.90;;;;;;5061613;28;20261;-84
2023/12/07 06:58:52;;;;;;;0.40;0.40;;;2.00;99.90;;;;;;5060733;28;20248;-84
2023/12/07 07:01:20;;;;;;;1.75;1.75;;;2.00;99.90;;;;;;5061525;28;20198;-85
2023/12/07 07:03:47;;;;;;;1.98;1.98;;;1.90;99.90;;;;;;5061190;28;20215;-84
2023/12/07 07:06:14;;;;;;;0.75;0.75;;;1.90;99.90;;;;;;5061322;28;20199;-84
2023/12/07 07:08:40;;;;;;;0.40;0.40;;;1.90;99.90;;;;;;5061332;28;20227;-84
2023/12/07 07:11:13;;;;;;;0.40;0.40;;;1.90;99.90;;;;;;5060815;28;20218;-83
2023/12/07 07:13:40;;;;;;;4.05;1.38;;;1.80;99.90;;;;;;5059079;28;20410;-84
2023/12/07 07:16:09;;;;;;;0.40;0.40;;;1.80;99.90;;;;;;5059545;28;20566;-82
2023/12/07 07:18:38;;;;;;;0.40;0.40;;;1.80;99.90;;;;;;5060168;28;20227;-82
2023/12/07 07:21:05;;;;;;;0.50;0.40;;;1.70;99.90;;;;;;5056918;28;20201;-83
2023/12/07 07:23:32;;;;;;;0.40;0.40;;;1.70;99.90;;;;;;5061948;28;20215;-81
2023/12/07 07:25:59;;;;;;;0.70;0.70;;;1.60;99.90;;;;;;5056318;28;20205;-83
2023/12/07 07:28:26;;;;;;;0.65;0.65;;;1.60;99.90;;;;;;5054752;28;20246;-82
2023/12/07 07:30:53;;;;;;;0.40;0.40;;;1.60;99.90;;;;;;5054955;28;20214;-82
2023/12/07 07:33:20;;;;;;;1.50;1.40;;;1.60;99.90;;;;;;5055964;28;20317;-82
2023/12/07 07:35:48;;;;;;;0.50;0.50;;;1.60;99.90;;;;;;5055338;28;20298;-82
2023/12/07 07:38:15;;;;;;;1.40;1.30;;;1.60;99.90;;;;;;5046899;28;20199;-82
2023/12/07 07:40:42;;;;;;;1.13;0.73;;;1.60;99.90;;;;;;5055664;28;20195;-82
2023/12/07 07:43:09;;;;;;;0.40;0.40;;;1.60;99.90;;;;;;5059309;28;20214;-82
2023/12/07 07:45:36;;;;;;;0.50;0.40;;;1.60;99.90;;;;;;5062314;28;20195;-83
2023/12/07 07:48:02;;;;;;;2.55;2.15;;;1.60;99.90;;;;;;5055712;28;20199;-81
2023/12/07 07:50:29;;;;;;;0.50;0.50;;;1.60;99.90;;;;;;5055433;28;20222;-81
2023/12/07 07:52:57;;;;;;;0.40;0.40;;;1.70;99.90;;;;;;5055312;28;20223;-82
2023/12/07 07:55:24;;;;;;;0.60;0.60;;;1.70;99.90;;;;;;5055193;28;20202;-84
2023/12/07 07:57:51;;;;;;;0.85;0.85;;;1.70;99.90;;;;;;5054852;28;20202;-81
2023/12/07 08:00:19;;;;;;;0.40;0.40;;;1.80;99.90;;;;;;5054737;28;20278;-82
2023/12/07 08:02:45;;;;;;;2.45;0.88;;;1.80;99.90;;;;;;5054730;28;20273;-83
2023/12/07 08:05:12;;;;;;;0.40;0.40;;;1.90;99.90;;;;;;5054900;28;20195;-82
2023/12/07 08:07:41;;;;;;;1.60;1.00;;;2.00;99.90;;;;;;5054796;28;20348;-82
2023/12/07 08:10:09;;;;;;;0.40;0.40;;;2.10;99.90;;;;;;5053262;28;20215;-82
2023/12/07 08:12:37;;;;;;;0.40;0.40;;;2.20;99.90;;;;;;5055108;28;20215;-83
2023/12/07 08:15:05;;;;;;;3.33;3.03;;;2.40;99.90;;;;;;5053656;28;20209;-82
2023/12/07 08:17:32;;;;;;;2.75;2.65;;;2.60;99.90;;;;;;5054305;28;20203;-82
2023/12/07 08:19:59;;;;;;;1.50;1.02;;;2.90;99.90;;;;;;5054299;28;20187;-83
2023/12/07 08:22:27;;;;;;;1.02;0.93;;;3.20;99.90;;;;;;5054281;28;20242;-82
2023/12/07 08:24:54;;;;;;;3.50;2.03;;;3.40;99.90;;;;;;5053294;28;20191;-82
2023/12/07 08:27:22;;;;;;;0.40;0.40;;;3.50;99.90;;;;;;5054130;28;20199;-84
2023/12/07 08:29:49;;;;;;;2.28;2.17;;;3.50;99.90;;;;;;5055696;28;20221;-82
2023/12/07 08:32:18;;;;;;;3.28;2.97;;;3.40;99.90;;;;;;5054512;28;20309;-83
2023/12/07 08:34:45;;;;;;;2.67;2.58;;;3.50;99.90;;;;;;5055117;28;20199;-83
2023/12/07 08:37:12;;;;;;;0.60;0.60;;;3.60;99.90;;;;;;5053483;28;20203;-81
2023/12/07 08:39:39;;;;;;;0.40;0.40;;;3.90;99.90;;;;;;5053710;28;20193;-82
2023/12/07 08:42:06;;;;;;;9.88;3.35;;;4.40;99.90;;;;;;5053054;28;20297;-81
2023/12/07 08:44:35;;;;;;;0.40;0.40;;;4.80;99.90;;;;;;5053995;28;20205;-83
2023/12/07 08:47:02;;;;;;;0.93;0.93;;;5.40;99.90;;;;;;5061746;28;20222;-83
2023/12/07 08:49:29;;;;;;;2.03;1.95;;;6.10;99.90;;;;;;5066089;28;20218;-81
2023/12/07 08:51:55;;;;;;;0.70;0.70;;;6.30;99.90;;;;;;5053961;28;20215;-82
2023/12/07 08:54:22;;;;;;;4.65;4.00;;;6.20;99.90;;;;;;5054931;28;20621;-81
2023/12/07 08:56:49;;;;;;;1.30;1.20;;;6.30;99.90;;;;;;5054987;28;20221;-84
2023/12/07 08:59:16;;;;;;;5.60;2.08;;;6.10;99.90;;;;;;5055332;28;20252;-83
2023/12/07 09:01:44;;;;;;;15.55;7.28;;;6.30;99.90;;;;;;5054614;28;20242;-83
2023/12/07 09:04:12;;;;;;;4.55;3.47;;;6.40;99.90;;;;;;5054272;28;20199;-81
2023/12/07 09:06:38;;;;;;;9.52;5.78;;;6.50;99.90;;;;;;5054558;28;20291;-81
2023/12/07 09:09:05;;;;;;;7.10;5.32;;;6.30;99.90;;;;;;5053459;28;20213;-81
2023/12/07 09:11:32;;;;;;;0.50;0.50;;;6.20;99.90;;;;;;5053903;28;20218;-81
2023/12/07 09:14:00;;;;;;;1.55;1.45;;;6.20;99.90;;;;;;5053716;28;20201;-82
2023/12/07 09:16:27;;;;;;;4.13;1.83;;;6.20;99.90;;;;;;5053284;28;20245;-82
2023/12/07 09:18:55;;;;;;;0.50;0.40;;;6.40;99.90;;;;;;5053681;28;20679;-82
2023/12/07 09:21:22;;;;;;;13.10;8.20;;;6.40;99.90;;;;;;5045090;28;20226;-81
2023/12/07 09:23:49;;;;;;;1.63;1.15;;;6.30;99.90;;;;;;5055042;28;20219;-83
2023/12/07 09:26:16;;;;;;;1.42;1.33;;;6.10;99.90;;;;;;5055347;28;20205;-81
2023/12/07 09:28:42;;;;;;;1.83;1.73;;;5.80;99.90;;;;;;5053104;28;20223;-81
2023/12/07 09:31:09;;;;;;;3.83;2.28;;;5.50;99.90;;;;;;5055035;28;20685;-81
2023/12/07 09:33:36;;;;;;;1.15;1.15;;;5.40;99.90;;;;;;5055149;28;20590;-82
2023/12/07 09:36:08;;;;;;;0.50;0.50;;;5.10;99.90;;;;;;5054282;28;20196;-82
2023/12/07 09:38:36;;;;;;;3.47;2.58;;;5.20;99.90;;;;;;5056912;28;20199;-82
2023/12/07 09:41:04;;;;;;;10.38;5.85;;;5.20;99.90;;;;;;5059465;28;20217;-83
2023/12/07 09:43:31;;;;;;;8.93;4.78;;;5.10;99.90;;;;;;5069075;28;20243;-82
2023/12/07 09:45:58;;;;;;;2.67;2.20;;;5.00;99.90;;;;;;5059228;28;20209;-82
2023/12/07 09:48:26;;;;;;;1.63;1.52;;;5.00;99.90;;;;;;5058202;28;20635;-81
2023/12/07 09:50:56;;;;;;;2.05;1.58;;;5.10;99.90;;;;;;5057609;28;20241;-81
2023/12/07 09:53:24;;;;;;;14.02;4.53;;;5.10;99.90;;;;;;5058737;28;20219;-81
2023/12/07 09:55:51;;;;;;;2.80;2.58;;;5.20;99.90;;;;;;5058935;28;20275;-82
2023/12/07 09:58:19;;;;;;;8.90;5.28;;;5.20;99.90;;;;;;5057047;28;20199;-81
2023/12/07 10:00:47;;;;;;;10.38;7.20;;;5.00;99.90;;;;;;5057256;28;20191;-81
2023/12/07 10:03:22;;;;;;;0.82;0.82;;;4.90;99.90;;;;;;5057626;28;20219;-81
2023/12/07 10:05:57;;;;;;;7.28;3.10;;;4.80;99.90;;;;;;5058087;28;20211;-82
2023/12/07 10:08:29;;;;;;;0.50;0.40;;;5.00;99.90;;;;;;5058284;28;20218;-82
2023/12/07 10:11:07;;;;;;;9.15;6.68;;;5.40;99.90;;;;;;5057403;28;20215;-81
2023/12/07 10:13:36;;;;;;;2.80;2.60;;;5.60;99.90;;;;;;5049803;28;20210;-81
2023/12/07 10:16:14;;;;;;;3.72;3.53;;;5.60;99.90;;;;;;5057606;28;20199;-80
2023/12/07 10:18:41;;;;;;;2.65;0.73;;;5.70;99.90;;;;;;5057279;28;20555;-81
2023/12/07 10:21:09;;;;;;;4.65;3.70;;;5.60;99.90;;;;;;5057036;28;20213;-83
2023/12/07 10:23:38;;;;;;;2.97;2.05;;;5.60;99.90;;;;;;5057600;28;20226;-83
2023/12/07 10:26:07;;;;;;;0.50;0.50;;;5.90;99.90;;;;;;5057023;28;20263;-82
2023/12/07 10:28:36;;;;;;;1.92;1.20;;;6.20;99.90;;;;;;5056933;28;20229;-83
2023/12/07 10:31:03;;;;;;;8.05;3.20;;;6.60;99.90;;;;;;5056467;28;20211;-82
2023/12/07 10:33:30;;;;;;;6.35;2.45;;;6.70;99.90;;;;;;5058647;28;20305;-80
2023/12/07 10:35:57;;;;;;;3.45;3.15;;;6.70;99.90;;;;;;5057347;28;20199;-84
2023/12/07 10:38:23;;;;;;;8.30;5.75;;;6.90;99.90;;;;;;5056536;28;20215;-83
2023/12/07 10:41:04;;;;;;;2.85;1.23;;;6.80;99.90;;;;;;5058193;28;20198;-82
2023/12/07 10:43:32;;;;;;;1.23;1.23;;;6.80;99.90;;;;;;5049515;28;20601;-81
2023/12/07 10:45:59;;;;;;;1.13;1.02;;;6.90;99.90;;;;;;5057639;28;20294;-81
2023/12/07 10:48:27;;;;;;;7.90;5.43;;;7.00;99.90;;;;;;5057610;28;20276;-82
2023/12/07 10:50:58;;;;;;;0.80;0.50;;;7.10;99.90;;;;;;5056787;28;20217;-83
2023/12/07 10:53:29;;;;;;;1.35;1.25;;;7.00;99.90;;;;;;5058636;28;20390;-82
2023/12/07 10:56:01;;;;;;;6.78;5.65;;;6.90;99.90;;;;;;5057758;28;20206;-82
2023/12/07 10:58:28;;;;;;;8.75;3.17;;;6.40;99.90;;;;;;5057273;28;20662;-82
2023/12/07 11:00:56;;;;;;;5.15;4.90;;;6.20;99.90;;;;;;5057719;28;20191;-80
2023/12/07 11:03:22;;;;;;;2.17;1.67;;;6.00;99.90;;;;;;5057338;28;20227;-79
2023/12/07 11:05:50;;;;;;;10.18;5.05;;;6.00;99.90;;;;;;5058099;28;20291;-80
2023/12/07 11:08:26;;;;;;;2.15;1.88;;;5.90;99.90;;;;;;5057620;28;20211;-81
2023/12/07 11:11:05;;;;;;;5.90;3.60;;;5.90;99.90;;;;;;5057424;28;20223;-80
2023/12/07 11:13:36;;;;;;;5.18;0.80;;;5.80;99.90;;;;;;5057022;28;20215;-81
2023/12/07 11:16:04;;;;;;;1.83;1.40;;;5.70;99.90;;;;;;5057468;28;20230;-81
2023/12/07 11:18:31;;;;;;;0.50;0.40;;;5.50;99.90;;;;;;5057959;28;20267;-80
2023/12/07 11:20:59;;;;;;;5.85;4.38;;;5.80;99.90;;;;;;5057887;28;20195;-81
2023/12/07 11:23:28;;;;;;;3.10;2.80;;;6.00;99.90;;;;;;5058062;28;20777;-80
2023/12/07 11:25:55;;;;;;;2.67;2.40;;;6.30;99.90;;;;;;5059070;28;20217;-82
2023/12/07 11:28:35;;;;;;;1.05;0.95;;;6.40;99.90;;;;;;5058746;28;20626;-82
2023/12/07 11:31:03;;;;;;;2.10;2.00;;;6.90;99.90;;;;;;5058764;28;20222;-81
2023/12/07 11:33:30;;;;;;;4.75;4.38;;;7.20;99.90;;;;;;5058058;28;20227;-81
2023/12/07 11:36:05;;;;;;;8.20;4.63;;;6.60;99.90;;;;;;5062298;28;20199;-79
2023/12/07 11:38:32;;;;;;;5.35;3.05;;;6.40;99.90;;;;;;5062881;28;20765;-82
2023/12/07 11:41:00;;;;;;;1.50;1.40;;;6.50;99.90;;;;;;5062606;28;20244;-80
2023/12/07 11:43:45;;;;;;;1.20;0.95;;;7.10;99.90;;;;;;5056935;28;20223;-82
2023/12/07 11:46:14;;;;;;;2.67;2.50;;;7.20;99.90;;;;;;5058110;28;20281;-80
2023/12/07 11:48:40;;;;;;;2.92;2.17;;;7.50;99.90;;;;;;5058249;28;20214;-81
2023/12/07 11:51:08;;;;;;;19.25;1.17;;;7.60;99.90;;;;;;5057029;28;20219;-81
2023/12/07 11:53:36;;;;;;;2.78;2.15;;;7.30;99.90;;;;;;5056954;28;20215;-82
2023/12/07 11:56:04;;;;;;;2.25;2.15;;;7.30;99.90;;;;;;5056941;28;20206;-82
2023/12/07 11:58:33;;;;;;;3.40;2.25;;;7.80;99.90;;;;;;5058135;28;20201;-81
2023/12/07 12:01:02;;;;;;;3.20;2.22;;;7.80;99.90;;;;;;5056812;28;20264;-81
2023/12/07 12:03:31;;;;;;;0.95;0.93;;;7.70;99.90;;;;;;5056894;28;20223;-82
2023/12/07 12:05:57;;;;;;;2.00;1.80;;;7.80;99.90;;;;;;5057117;28;20195;-82
2023/12/07 12:08:24;;;;;;;1.75;1.65;;;7.70;99.90;;;;;;5058142;28;20206;-81
2023/12/07 12:10:53;;;;;;;1.90;1.58;;;7.50;99.90;;;;;;5057657;28;20218;-82
2023/12/07 12:13:20;;;;;;;4.85;2.08;;;7.20;99.90;;;;;;5057054;28;20245;-81
2023/12/07 12:15:47;;;;;;;5.13;2.88;;;6.80;99.90;;;;;;5057954;28;20191;-81
2023/12/07 12:18:17;;;;;;;23.27;4.50;;;6.70;99.90;;;;;;5056288;28;20213;-79
2023/12/07 12:20:46;;;;;;;0.50;0.50;;;6.50;99.90;;;;;;5055981;28;20206;-82
2023/12/07 12:23:13;;;;;;;0.60;0.60;;;6.20;99.90;;;;;;5055944;28;20744;-81
2023/12/07 12:25:41;;;;;;;3.08;2.58;;;6.10;99.90;;;;;;5056359;28;20546;-81
2023/12/07 12:28:09;;;;;;;1.45;1.13;;;6.00;99.90;;;;;;5056240;28;20207;-80
2023/12/07 12:30:37;;;;;;;0.82;0.82;;;5.90;99.90;;;;;;5055936;28;20198;-82
2023/12/07 12:33:03;;;;;;;1.30;1.20;;;5.90;99.90;;;;;;5055531;28;20223;-82
2023/12/07 12:35:32;;;;;;;2.10;1.90;;;5.90;99.90;;;;;;5056314;28;20565;-81
2023/12/07 12:37:58;;;;;;;0.88;0.68;;;5.70;99.90;;;;;;5056010;28;20199;-82
2023/12/07 12:40:29;;;;;;;22.95;4.70;;;5.70;99.90;;;;;;5056208;28;20230;-82
2023/12/07 12:42:56;;;;;;;3.08;2.78;;;5.90;99.90;;;;;;5057034;28;20219;-81
2023/12/07 12:45:23;;;;;;;0.50;0.50;;;5.80;99.90;;;;;;5055825;28;20199;-82
2023/12/07 12:47:50;;;;;;;1.05;0.63;;;5.80;99.90;;;;;;5055741;28;20202;-82
2023/12/07 12:50:38;;;;;;;0.50;0.50;;;5.70;99.90;;;;;;5059589;28;20266;-80
2023/12/07 12:53:06;;;;;;;0.82;0.82;;;5.60;99.90;;;;;;5062394;28;20279;-79
2023/12/07 12:55:35;;;;;;;0.60;0.50;;;5.50;99.90;;;;;;5067777;28;20203;-80
2023/12/07 12:58:04;;;;;;;1.83;1.73;;;5.60;99.90;;;;;;5068692;28;20207;-80
2023/12/07 13:00:31;;;;;;;4.55;2.95;;;5.50;99.90;;;;;;5067170;28;20236;-80